LIBP/PSR METAR and TAF weather

Enter ICAO airport designator
Station Type Date Time Source
LIBP METAR 2019/06/26 04:50 UTC NOAA

LIBP 260450Z AUTO 23004KT 9999 NCD 23/18 Q1021


Station Type Date Time Source
LIBP Decoded METAR 2019/06/26 04:50 UTC NOAA

Pescara, Italy (LIBP) 42-26N 014-12E 11M
Jun 26, 2019 - 12:50 AM EDT / 2019.06.26 0450 UTC
Wind: from the SW (230 degrees) at 5 MPH (4 KT):0
Visibility: greater than 7 mile(s):0
Temperature: 73 F (23 C)
Dew Point: 64 F (18 C)
Relative Humidity: 73%
Pressure (altimeter): 30.15 in. Hg (1021 hPa)
ob: LIBP 260450Z AUTO 23004KT 9999 NCD 23/18 Q1021
cycle: 5

Station Type Date Time Source
LIBP TAF 2019/06/26 06:21 UTC NOAA

TAF LIBP 260500Z 2606/2706 VRB04KT CAVOK
BECMG 2609/2611 02010KT
BECMG 2617/2619 VRB04KT

Example: see airport list